Time;durP1;ratioP1;P1;durP2;ratioP2;P2;SDS_P1;SDS_P2;PMS_P1;PMS_P2;Temp;Humidity;BMP_temperature;BMP_pressure;BME280_temperature;BME280_humidity;BME280_pressure;Samples;Min_cycle;Max_cycle;Signal;HPM_P1;HPM_P2
2022/05/23 00:01:19;;;;;;;5.18;1.95;;;21.20;62.80;;;;;;5032427;28;20025;-61
2022/05/23 00:03:45;;;;;;;4.55;2.20;;;21.10;62.80;;;;;;5043094;28;20490;-61
2022/05/23 00:06:13;;;;;;;5.93;2.00;;;21.10;62.80;;;;;;5034337;28;20103;-61
2022/05/23 00:08:38;;;;;;;4.03;2.03;;;21.10;62.80;;;;;;5063792;28;20112;-61
2022/05/23 00:11:04;;;;;;;4.18;2.20;;;21.10;62.80;;;;;;5035655;28;20125;-61
2022/05/23 00:13:30;;;;;;;5.97;1.92;;;21.10;62.80;;;;;;5032251;28;20021;-61
2022/05/23 00:15:57;;;;;;;4.78;2.05;;;21.10;62.80;;;;;;5034599;28;20040;-62
2022/05/23 00:18:23;;;;;;;4.07;2.10;;;21.10;62.80;;;;;;5039841;28;20111;-61
2022/05/23 00:20:48;;;;;;;6.10;2.17;;;21.10;62.80;;;;;;5033585;28;20122;-61
2022/05/23 00:23:14;;;;;;;5.30;1.90;;;21.10;62.80;;;;;;5036283;28;20032;-61
2022/05/23 00:25:39;;;;;;;5.57;2.10;;;21.00;62.70;;;;;;5036492;28;20028;-60
2022/05/23 00:28:05;;;;;;;5.32;2.15;;;21.00;62.70;;;;;;5031491;28;20025;-61
2022/05/23 00:30:31;;;;;;;4.13;1.80;;;21.00;62.80;;;;;;5036502;28;20041;-61
2022/05/23 00:35:49;;;;;;;4.60;2.03;;;21.00;62.70;;;;;;5032402;28;23760;-61
2022/05/23 00:38:15;;;;;;;;;;;21.00;62.80;;;;;;5037204;28;20132;-61
2022/05/23 00:44:09;;;;;;;4.55;2.10;;;21.00;62.80;;;;;;5020023;28;20064;-61
2022/05/23 00:46:35;;;;;;;3.78;1.98;;;21.00;62.70;;;;;;5018345;28;20057;-61
2022/05/23 00:49:04;;;;;;;5.00;1.98;;;21.00;62.70;;;;;;5024978;28;20056;-60
2022/05/23 00:51:30;;;;;;;5.20;2.20;;;21.00;62.70;;;;;;5024995;28;20167;-61
2022/05/23 00:53:58;;;;;;;4.53;1.98;;;21.00;62.70;;;;;;5005371;28;20116;-62
2022/05/23 00:56:26;;;;;;;4.45;2.10;;;21.00;62.70;;;;;;5021598;28;20375;-61
2022/05/23 00:58:57;;;;;;;4.07;1.83;;;21.00;62.80;;;;;;5019867;28;20411;-61
2022/05/23 01:01:24;;;;;;;5.13;1.98;;;20.90;62.70;;;;;;5000390;28;20469;-61
2022/05/23 01:03:50;;;;;;;5.72;2.20;;;20.90;62.80;;;;;;5003061;28;20049;-61
2022/05/23 01:06:15;;;;;;;4.80;2.00;;;20.90;62.70;;;;;;5024317;28;20037;-61
2022/05/23 01:08:41;;;;;;;5.45;2.03;;;20.90;62.70;;;;;;5024688;28;20045;-61
2022/05/23 01:11:07;;;;;;;4.28;2.10;;;20.90;62.70;;;;;;5021275;28;20060;-61
2022/05/23 01:13:33;;;;;;;4.28;1.90;;;20.90;62.70;;;;;;5000084;28;20033;-60
2022/05/23 01:15:58;;;;;;;4.15;1.98;;;20.90;62.70;;;;;;5023696;28;20395;-61
2022/05/23 01:18:24;;;;;;;4.38;1.95;;;20.90;62.70;;;;;;5022582;28;20028;-61
2022/05/23 01:20:54;;;;;;;4.30;1.73;;;20.90;62.70;;;;;;5033816;28;20075;-61
2022/05/23 01:23:39;;;;;;;5.28;2.05;;;20.90;62.70;;;;;;5035770;28;20410;-62
2022/05/23 01:26:04;;;;;;;3.88;1.90;;;20.90;62.70;;;;;;5035250;28;20555;-61
2022/05/23 01:28:37;;;;;;;3.97;1.98;;;20.90;62.70;;;;;;5029862;28;20030;-61
2022/05/23 01:31:03;;;;;;;4.28;1.63;;;20.90;62.70;;;;;;5041758;28;20036;-61
2022/05/23 01:33:29;;;;;;;5.68;1.77;;;20.80;62.60;;;;;;5036126;28;20040;-61
2022/05/23 01:35:57;;;;;;;4.00;2.00;;;20.80;62.60;;;;;;5034399;28;20034;-61
2022/05/23 01:38:23;;;;;;;5.00;2.10;;;20.80;62.70;;;;;;5037999;28;20033;-61
2022/05/23 01:40:49;;;;;;;3.17;1.90;;;20.80;62.70;;;;;;5033380;28;20033;-61
2022/05/23 01:43:15;;;;;;;3.90;1.92;;;20.80;62.60;;;;;;5037311;28;20040;-61
2022/05/23 01:45:41;;;;;;;4.93;2.10;;;20.80;62.60;;;;;;5033770;28;20026;-60
2022/05/23 01:48:07;;;;;;;4.00;2.00;;;20.80;62.60;;;;;;5032885;28;20468;-61
2022/05/23 01:50:33;;;;;;;4.45;1.80;;;20.80;62.70;;;;;;5035776;28;20029;-61
2022/05/23 01:52:58;;;;;;;4.80;2.00;;;20.80;62.60;;;;;;5032348;28;20056;-60
2022/05/23 01:55:24;;;;;;;4.88;1.80;;;20.80;62.70;;;;;;5030932;28;20367;-61
2022/05/23 01:57:50;;;;;;;3.58;1.85;;;20.80;62.70;;;;;;5033282;28;20540;-61
2022/05/23 02:03:01;;;;;;;5.38;1.83;;;20.80;62.60;;;;;;5040059;28;20106;-60
2022/05/23 02:05:27;;;;;;;4.15;1.95;;;20.80;62.60;;;;;;5034726;28;20064;-61
2022/05/23 02:07:56;;;;;;;4.18;1.85;;;20.70;62.60;;;;;;5034113;28;20048;-61
2022/05/23 02:10:22;;;;;;;4.10;1.90;;;20.80;62.60;;;;;;5034564;28;20044;-61
2022/05/23 02:12:48;;;;;;;3.83;1.77;;;20.70;62.50;;;;;;5043674;28;20029;-61
2022/05/23 02:15:13;;;;;;;4.75;1.85;;;20.80;62.60;;;;;;5033865;28;20414;-61
2022/05/23 02:17:39;;;;;;;3.00;1.80;;;20.70;62.60;;;;;;5042027;28;20025;-61
2022/05/23 02:20:06;;;;;;;4.78;2.00;;;20.70;62.60;;;;;;5034158;28;20057;-61
2022/05/23 02:22:32;;;;;;;3.25;1.88;;;20.70;62.60;;;;;;5033857;28;20029;-61
2022/05/23 02:24:58;;;;;;;5.53;1.80;;;20.70;62.60;;;;;;5033415;28;20113;-61
2022/05/23 02:27:24;;;;;;;4.95;1.83;;;20.70;62.60;;;;;;5036779;28;20039;-61
2022/05/23 02:29:49;;;;;;;3.10;1.67;;;20.70;62.60;;;;;;5035235;28;20037;-61
2022/05/23 02:32:15;;;;;;;4.35;1.63;;;20.70;62.60;;;;;;5037213;28;20521;-61
2022/05/23 02:34:41;;;;;;;5.22;2.15;;;20.70;62.60;;;;;;5034336;28;20557;-61
2022/05/23 02:37:08;;;;;;;3.83;1.70;;;20.70;62.60;;;;;;5034110;28;20037;-61
2022/05/23 02:39:33;;;;;;;4.00;1.80;;;20.70;62.50;;;;;;5033829;28;20047;-60
2022/05/23 02:41:59;;;;;;;4.35;1.70;;;20.70;62.60;;;;;;5034919;28;20505;-61
2022/05/23 02:44:24;;;;;;;2.95;1.73;;;20.60;62.50;;;;;;5035293;28;20052;-61
2022/05/23 02:46:50;;;;;;;3.72;1.75;;;20.70;63.20;;;;;;5035045;28;20488;-61
2022/05/23 02:49:16;;;;;;;4.32;1.60;;;20.70;62.60;;;;;;5037840;28;20071;-61
2022/05/23 02:51:41;;;;;;;3.88;1.83;;;20.60;62.60;;;;;;5042787;28;20436;-61
2022/05/23 02:54:07;;;;;;;4.30;1.80;;;20.70;62.60;;;;;;5036350;28;20032;-61
2022/05/23 02:56:34;;;;;;;3.00;1.73;;;20.60;62.60;;;;;;5033905;28;20485;-61
2022/05/23 02:59:00;;;;;;;4.15;1.90;;;20.60;62.50;;;;;;5040269;28;20033;-61
2022/05/23 03:01:26;;;;;;;3.88;1.88;;;20.60;62.50;;;;;;5033946;28;20029;-61
2022/05/23 03:03:51;;;;;;;3.15;1.70;;;20.60;62.50;;;;;;5036418;28;20524;-61
2022/05/23 03:06:17;;;;;;;4.65;1.90;;;20.60;62.50;;;;;;5036584;28;20043;-61
2022/05/23 03:08:43;;;;;;;4.00;1.75;;;20.60;62.50;;;;;;5035343;28;20017;-61
2022/05/23 03:11:08;;;;;;;4.65;1.70;;;20.60;62.50;;;;;;5036632;28;20051;-61
2022/05/23 03:13:37;;;;;;;3.10;1.90;;;20.60;62.50;;;;;;5040516;28;20639;-61
2022/05/23 03:16:10;;;;;;;2.63;1.52;;;20.60;62.50;;;;;;5033337;28;20018;-61
2022/05/23 03:18:35;;;;;;;2.47;1.50;;;20.60;62.50;;;;;;5032177;28;20021;-61
2022/05/23 03:21:03;;;;;;;3.30;1.60;;;20.60;62.50;;;;;;5036832;28;20079;-61
2022/05/23 03:29:00;;;;;;;3.95;1.60;;;20.60;62.60;;;;;;5062811;28;20059;-61
2022/05/23 03:31:27;;;;;;;4.35;1.75;;;20.50;62.40;;;;;;5039945;28;20041;-61
2022/05/23 03:33:53;;;;;;;3.67;1.88;;;20.50;62.50;;;;;;5033894;28;20460;-61
2022/05/23 03:36:19;;;;;;;2.85;1.60;;;20.50;62.50;;;;;;5038340;28;20041;-61
2022/05/23 03:38:45;;;;;;;3.38;1.55;;;20.50;62.50;;;;;;5037184;28;20061;-61
2022/05/23 03:41:11;;;;;;;4.30;1.67;;;20.50;62.50;;;;;;5037865;28;20061;-61
2022/05/23 03:43:37;;;;;;;2.30;1.55;;;20.50;62.50;;;;;;5031325;28;20061;-61
2022/05/23 03:46:06;;;;;;;3.95;1.60;;;20.50;62.50;;;;;;5034576;28;20040;-61
2022/05/23 03:48:32;;;;;;;4.15;1.80;;;20.50;62.40;;;;;;5040861;28;20053;-61
2022/05/23 03:50:58;;;;;;;3.97;1.77;;;20.50;62.50;;;;;;5035478;28;20053;-61
2022/05/23 03:53:23;;;;;;;2.55;1.48;;;20.50;62.40;;;;;;5038862;28;20060;-61
2022/05/23 03:55:52;;;;;;;3.17;1.60;;;20.40;62.50;;;;;;5039628;28;20562;-61
2022/05/23 03:58:18;;;;;;;2.92;1.65;;;20.40;62.40;;;;;;5033651;28;20038;-61
2022/05/23 04:00:49;;;;;;;4.38;1.75;;;20.40;62.40;;;;;;5032366;28;20029;-61
2022/05/23 04:03:17;;;;;;;2.67;1.60;;;20.50;62.40;;;;;;5035203;28;20037;-61
2022/05/23 04:05:43;;;;;;;2.50;1.50;;;20.50;62.40;;;;;;5036089;28;20121;-60
2022/05/23 04:08:09;;;;;;;3.72;1.60;;;20.40;62.40;;;;;;5035019;28;20468;-61
2022/05/23 04:10:35;;;;;;;3.63;1.60;;;20.40;62.40;;;;;;5033960;28;20031;-61
2022/05/23 04:13:02;;;;;;;2.58;1.50;;;20.40;62.40;;;;;;5034891;28;20608;-61
2022/05/23 04:15:28;;;;;;;3.70;1.70;;;20.40;62.40;;;;;;5034680;28;20136;-61
2022/05/23 04:17:54;;;;;;;3.22;1.70;;;20.50;62.50;;;;;;5038116;28;20025;-61
2022/05/23 04:20:20;;;;;;;4.15;1.90;;;20.40;62.40;;;;;;5043762;28;20127;-61
2022/05/23 04:22:46;;;;;;;2.92;1.52;;;20.40;62.30;;;;;;5034426;28;20053;-61
2022/05/23 04:25:14;;;;;;;2.55;1.48;;;20.40;62.40;;;;;;5038285;28;20069;-61
2022/05/23 04:27:40;;;;;;;3.35;1.55;;;20.40;62.30;;;;;;5039059;28;20627;-61
2022/05/23 04:30:08;;;;;;;2.55;1.50;;;20.40;62.30;;;;;;5038950;28;20025;-62
2022/05/23 04:35:20;;;;;;;3.60;1.60;;;20.40;62.30;;;;;;5035186;28;20031;-61
2022/05/23 04:37:50;;;;;;;2.97;1.52;;;20.40;62.20;;;;;;5037016;28;20021;-61
2022/05/23 04:40:21;;;;;;;2.92;1.45;;;20.40;62.30;;;;;;5033426;28;20044;-61
2022/05/23 04:42:47;;;;;;;3.70;1.70;;;20.40;62.40;;;;;;5036688;28;20021;-61
2022/05/23 04:45:13;;;;;;;2.92;1.50;;;20.40;62.30;;;;;;5034874;28;20047;-61
2022/05/23 04:50:23;;;;;;;3.00;1.55;;;20.40;62.30;;;;;;5034008;28;20032;-61
2022/05/23 04:52:50;;;;;;;2.42;1.50;;;20.30;62.20;;;;;;5035295;28;20479;-61
2022/05/23 04:55:16;;;;;;;4.85;2.15;;;20.30;62.30;;;;;;5034377;28;20032;-61
2022/05/23 04:57:42;;;;;;;7.07;1.90;;;20.40;62.90;;;;;;5036948;28;20108;-62
2022/05/23 05:00:10;;;;;;;4.75;1.80;;;20.40;63.50;;;;;;5038291;28;20086;-61
2022/05/23 05:02:36;;;;;;;7.00;1.60;;;20.40;63.00;;;;;;5039473;28;20021;-61
2022/05/23 05:05:02;;;;;;;4.05;1.60;;;20.40;63.30;;;;;;5033902;28;20454;-61
2022/05/23 05:07:28;;;;;;;5.80;1.80;;;20.40;63.40;;;;;;5037512;28;20536;-62
2022/05/23 05:09:53;;;;;;;7.53;1.92;;;20.40;63.60;;;;;;5028626;28;20060;-61
2022/05/23 05:12:19;;;;;;;7.30;1.90;;;20.40;63.70;;;;;;5034091;28;20502;-61
2022/05/23 05:14:45;;;;;;;8.32;1.80;;;20.40;63.60;;;;;;5036914;28;20478;-61
2022/05/23 05:17:10;;;;;;;5.32;1.75;;;20.40;63.60;;;;;;5043474;28;20821;-61
2022/05/23 05:19:36;;;;;;;11.52;1.90;;;20.40;63.70;;;;;;5038911;28;20599;-61
2022/05/23 05:22:03;;;;;;;4.15;1.73;;;20.40;63.60;;;;;;5040652;28;20027;-61
2022/05/23 05:24:29;;;;;;;4.72;1.73;;;20.40;64.00;;;;;;5047125;28;20024;-61
2022/05/23 05:26:55;;;;;;;7.00;2.05;;;20.40;64.00;;;;;;5038110;28;20068;-61
2022/05/23 05:29:21;;;;;;;4.82;2.00;;;20.40;64.00;;;;;;5029290;28;20025;-61
2022/05/23 05:31:53;;;;;;;5.35;1.90;;;20.40;63.90;;;;;;5033678;28;20075;-61
2022/05/23 05:34:23;;;;;;;4.68;2.00;;;20.40;63.90;;;;;;5042465;28;20025;-61
2022/05/23 05:36:51;;;;;;;6.95;2.08;;;20.40;64.00;;;;;;5043345;28;20029;-61
2022/05/23 05:39:18;;;;;;;5.25;2.00;;;20.40;64.00;;;;;;5034302;28;20078;-61
2022/05/23 05:42:11;;;;;;;4.45;1.70;;;20.40;63.90;;;;;;5033538;28;20025;-61
2022/05/23 05:44:39;;;;;;;8.93;2.00;;;20.30;63.90;;;;;;5035620;28;20063;-61
2022/05/23 05:47:08;;;;;;;6.60;2.00;;;20.30;63.90;;;;;;5033389;28;20045;-61
2022/05/23 05:49:35;;;;;;;5.55;1.70;;;20.30;63.90;;;;;;5037180;28;20013;-61
2022/05/23 05:52:01;;;;;;;5.85;1.90;;;20.30;64.00;;;;;;5042660;28;20034;-61
2022/05/23 05:54:28;;;;;;;4.40;1.80;;;20.30;64.00;;;;;;5062721;28;20028;-61
2022/05/23 05:56:54;;;;;;;6.43;1.98;;;20.30;64.00;;;;;;5050401;28;20437;-61
2022/05/23 05:59:20;;;;;;;6.07;1.90;;;20.30;64.00;;;;;;5037506;28;20029;-61
2022/05/23 06:01:45;;;;;;;5.40;1.80;;;20.30;64.00;;;;;;5030712;28;20025;-61
2022/05/23 06:04:11;;;;;;;5.38;1.70;;;20.30;64.10;;;;;;5030404;28;20025;-61
2022/05/23 06:12:05;;;;;;;5.15;1.95;;;20.30;64.10;;;;;;5033726;28;20084;-61
2022/05/23 06:14:31;;;;;;;4.88;2.00;;;20.30;64.10;;;;;;5032282;28;20026;-61
2022/05/23 06:16:57;;;;;;;4.65;1.92;;;20.30;64.10;;;;;;5030402;28;20030;-61
2022/05/23 06:19:22;;;;;;;5.68;2.10;;;20.30;64.10;;;;;;5034782;28;20025;-61
2022/05/23 06:21:48;;;;;;;5.63;1.75;;;20.30;64.10;;;;;;5036010;28;20029;-61
2022/05/23 06:24:14;;;;;;;4.57;1.70;;;20.30;64.10;;;;;;5033617;28;20434;-61
2022/05/23 06:26:40;;;;;;;5.28;1.70;;;20.30;65.20;;;;;;5032177;28;20033;-61
2022/05/23 06:29:06;;;;;;;4.20;1.70;;;20.30;64.10;;;;;;5032796;28;20026;-61
2022/05/23 06:31:31;;;;;;;4.07;1.73;;;20.30;64.00;;;;;;5031638;28;20045;-61
2022/05/23 06:33:57;;;;;;;4.85;2.00;;;20.30;64.10;;;;;;5027776;28;20776;-61
2022/05/23 06:36:23;;;;;;;5.10;1.77;;;20.30;64.10;;;;;;5037806;28;20037;-61
2022/05/23 06:38:49;;;;;;;4.45;1.80;;;20.30;64.10;;;;;;5031002;28;20478;-61
2022/05/23 06:41:14;;;;;;;4.60;1.73;;;20.30;64.00;;;;;;5032625;28;20033;-61
2022/05/23 06:43:41;;;;;;;6.57;1.90;;;20.30;64.00;;;;;;5036573;28;20025;-61
2022/05/23 06:46:07;;;;;;;4.75;2.00;;;20.40;63.90;;;;;;5033911;28;20036;-61
2022/05/23 06:48:34;;;;;;;5.85;1.83;;;20.30;63.80;;;;;;5034078;28;20125;-61
2022/05/23 06:50:59;;;;;;;3.58;1.70;;;20.40;63.90;;;;;;5043983;28;20029;-61
2022/05/23 06:53:25;;;;;;;4.55;1.70;;;20.40;63.80;;;;;;5038482;28;20039;-61
2022/05/23 06:55:51;;;;;;;4.72;1.70;;;20.40;63.70;;;;;;5037297;28;20342;-61
2022/05/23 06:58:20;;;;;;;4.85;1.73;;;20.40;63.70;;;;;;5031702;28;20044;-60
2022/05/23 07:00:49;;;;;;;3.00;1.65;;;20.40;63.80;;;;;;5041141;28;20032;-68
2022/05/23 07:03:15;;;;;;;5.32;2.00;;;20.40;63.70;;;;;;5036046;28;20029;-68
2022/05/23 07:14:01;;;;;;;4.10;1.50;;;20.40;63.70;;;;;;5043982;28;20074;-67
2022/05/23 07:16:28;;;;;;;4.18;1.80;;;20.50;63.70;;;;;;5048387;28;20029;-67
2022/05/23 07:18:54;;;;;;;5.38;1.90;;;20.50;63.60;;;;;;5045050;28;20604;-67
2022/05/23 07:21:20;;;;;;;3.92;1.73;;;20.50;63.60;;;;;;5044771;28;20519;-67
2022/05/23 07:23:46;;;;;;;4.22;1.80;;;20.50;63.60;;;;;;5046662;28;20032;-67
2022/05/23 07:26:16;;;;;;;4.07;1.80;;;20.50;63.60;;;;;;5040598;28;20032;-67
2022/05/23 07:28:48;;;;;;;3.75;1.75;;;20.50;63.60;;;;;;5049402;28;20110;-67
2022/05/23 07:31:14;;;;;;;5.30;1.70;;;20.50;63.60;;;;;;5050431;28;20298;-68
2022/05/23 07:33:40;;;;;;;4.88;1.50;;;20.50;63.70;;;;;;5048284;28;20493;-67
2022/05/23 07:36:06;;;;;;;4.65;1.80;;;20.50;63.80;;;;;;5046210;28;20462;-68
2022/05/23 07:38:32;;;;;;;4.00;1.73;;;20.50;63.70;;;;;;5045382;28;20033;-68
2022/05/23 07:40:58;;;;;;;3.13;1.70;;;20.50;63.70;;;;;;5048764;28;20037;-68
2022/05/23 07:43:23;;;;;;;4.55;1.83;;;20.50;63.60;;;;;;5043047;28;20024;-68
2022/05/23 07:45:50;;;;;;;8.88;1.90;;;20.50;63.70;;;;;;5045485;28;20467;-68
2022/05/23 07:48:17;;;;;;;4.00;1.90;;;20.50;63.60;;;;;;5034534;28;20502;-67
2022/05/23 07:50:43;;;;;;;3.70;1.67;;;20.40;63.70;;;;;;5038504;28;20033;-67
2022/05/23 08:01:22;;;;;;;4.45;1.60;;;20.50;63.70;;;;;;5031944;28;20036;-69
2022/05/23 08:03:47;;;;;;;2.92;1.52;;;20.50;64.00;;;;;;5041489;28;20025;-68
2022/05/23 08:06:14;;;;;;;4.90;1.80;;;20.50;63.80;;;;;;5035623;28;20356;-69
2022/05/23 08:08:39;;;;;;;3.60;1.58;;;20.50;63.80;;;;;;5043889;28;20033;-70
2022/05/23 08:11:08;;;;;;;4.13;1.75;;;20.50;63.70;;;;;;5044035;28;20028;-71
2022/05/23 08:13:37;;;;;;;4.40;1.80;;;20.60;63.90;;;;;;5041468;28;20029;-70
2022/05/23 08:16:03;;;;;;;4.18;1.85;;;20.60;63.80;;;;;;5049049;28;20021;-70
2022/05/23 08:18:29;;;;;;;5.15;1.60;;;20.50;63.80;;;;;;5032808;28;20398;-71
2022/05/23 08:20:55;;;;;;;4.20;1.65;;;20.60;63.80;;;;;;5046587;28;20021;-71
2022/05/23 08:23:21;;;;;;;3.70;1.67;;;20.60;63.80;;;;;;5034294;28;20025;-68
2022/05/23 08:25:47;;;;;;;3.90;1.30;;;20.60;63.80;;;;;;5034485;28;20094;-68
2022/05/23 08:28:13;;;;;;;3.55;1.90;;;20.60;63.90;;;;;;5041582;28;20497;-68
2022/05/23 08:30:39;;;;;;;3.50;1.58;;;20.60;63.80;;;;;;5048703;28;20398;-68
2022/05/23 08:33:05;;;;;;;3.20;1.60;;;20.60;63.70;;;;;;5033107;28;20048;-69
2022/05/23 08:35:30;;;;;;;3.45;1.60;;;20.60;63.80;;;;;;5037520;28;20025;-69
2022/05/23 08:37:56;;;;;;;4.47;1.55;;;20.60;63.80;;;;;;5033140;28;20029;-69
2022/05/23 08:40:34;;;;;;;4.93;1.80;;;20.60;63.90;;;;;;5037566;28;20025;-68
2022/05/23 08:43:00;;;;;;;3.33;1.40;;;20.60;63.90;;;;;;5041920;28;20025;-68
2022/05/23 08:45:34;;;;;;;3.30;1.48;;;20.60;63.90;;;;;;5042328;28;20024;-71
2022/05/23 08:48:15;;;;;;;4.07;1.53;;;20.60;63.90;;;;;;5065409;28;20088;-71
2022/05/23 08:51:11;;;;;;;4.22;1.70;;;20.60;64.00;;;;;;5034361;28;20434;-70
2022/05/23 08:53:53;;;;;;;6.28;1.42;;;20.60;63.90;;;;;;5038932;28;20044;-70
2022/05/23 08:56:37;;;;;;;2.92;1.45;;;20.60;63.90;;;;;;5039839;28;20623;-70
2022/05/23 08:59:03;;;;;;;3.50;1.58;;;20.60;63.80;;;;;;5034751;28;20013;-70
2022/05/23 09:01:42;;;;;;;5.78;1.80;;;20.60;63.80;;;;;;5040062;28;20051;-69
2022/05/23 09:04:26;;;;;;;3.83;1.42;;;20.60;63.70;;;;;;5042434;28;20479;-67
2022/05/23 09:06:52;;;;;;;4.25;1.50;;;20.70;63.70;;;;;;5038285;28;20573;-68
2022/05/23 09:09:19;;;;;;;3.22;1.55;;;20.70;63.80;;;;;;5042909;28;20036;-68
2022/05/23 09:11:50;;;;;;;5.18;1.60;;;20.70;63.90;;;;;;5047642;28;20482;-70
2022/05/23 09:14:18;;;;;;;4.38;1.60;;;20.70;65.00;;;;;;5037696;28;20080;-69
2022/05/23 09:16:54;;;;;;;5.57;1.70;;;20.70;63.90;;;;;;5041133;28;20064;-68
2022/05/23 09:19:22;;;;;;;6.28;1.60;;;20.70;63.80;;;;;;5032809;28;20040;-69
2022/05/23 09:24:48;;;;;;;3.15;1.40;;;20.70;63.70;;;;;;5040682;28;20066;-68
2022/05/23 09:27:40;;;;;;;5.07;1.80;;;20.70;63.60;;;;;;5041620;28;20090;-68
2022/05/23 09:30:12;;;;;;;3.03;1.50;;;20.70;63.60;;;;;;5040323;28;20017;-69
2022/05/23 09:32:43;;;;;;;3.88;1.60;;;20.70;63.70;;;;;;5037373;28;20037;-68
2022/05/23 09:35:18;;;;;;;3.28;1.50;;;20.70;63.70;;;;;;5035844;28;20027;-68
2022/05/23 09:37:46;;;;;;;5.10;1.70;;;20.70;63.70;;;;;;5035534;28;20029;-68
2022/05/23 09:40:25;;;;;;;4.55;1.60;;;20.70;63.60;;;;;;5034515;28;20501;-68
2022/05/23 09:48:23;;;;;;;3.38;1.52;;;20.80;63.50;;;;;;5041846;28;20092;-67
2022/05/23 09:51:05;;;;;;;3.10;1.60;;;20.80;63.60;;;;;;5040470;28;20117;-68
2022/05/23 09:53:50;;;;;;;3.38;1.60;;;20.80;63.50;;;;;;5039101;28;20606;-68
2022/05/23 09:56:34;;;;;;;;;;;20.80;63.60;;;;;;5033508;28;20066;-67
2022/05/23 09:59:02;;;;;;;3.55;1.50;;;20.80;63.60;;;;;;5034256;28;20499;-68
2022/05/23 10:01:29;;;;;;;4.03;1.63;;;20.80;63.70;;;;;;5033493;28;20018;-69
2022/05/23 10:03:55;;;;;;;3.70;1.40;;;20.80;63.60;;;;;;5045274;28;20034;-66
2022/05/23 10:06:33;;;;;;;3.20;1.60;;;20.80;63.60;;;;;;5035389;28;20036;-67
2022/05/23 10:08:59;;;;;;;2.67;1.58;;;20.80;63.50;;;;;;5032838;28;20109;-69
2022/05/23 10:11:33;;;;;;;3.28;1.40;;;20.80;63.50;;;;;;5035521;28;20029;-67
2022/05/23 10:14:03;;;;;;;4.15;1.58;;;20.80;63.60;;;;;;5041883;28;20068;-67
2022/05/23 10:16:49;;;;;;;3.88;1.50;;;20.80;64.10;;;;;;5041212;28;20021;-68
2022/05/23 10:19:32;;;;;;;3.45;1.67;;;20.80;63.40;;;;;;5039129;28;20032;-70
2022/05/23 10:22:16;;;;;;;4.68;1.50;;;20.80;63.60;;;;;;5047993;28;20048;-69
2022/05/23 10:25:05;;;;;;;2.83;1.23;;;20.90;63.50;;;;;;5033538;28;20025;-68
2022/05/23 10:27:56;;;;;;;3.03;1.30;;;20.80;63.50;;;;;;5065464;28;20455;-68
2022/05/23 10:30:22;;;;;;;2.88;1.60;;;20.80;63.50;;;;;;5046193;28;20033;-68
2022/05/23 10:32:51;;;;;;;4.68;1.50;;;20.80;63.60;;;;;;5041266;28;20021;-68
2022/05/23 10:35:32;;;;;;;6.15;1.80;;;20.80;63.50;;;;;;5040788;28;20033;-68
2022/05/23 10:43:33;;;;;;;4.35;1.63;;;20.90;63.70;;;;;;5039691;28;20064;-68
2022/05/23 10:46:02;;;;;;;5.05;1.63;;;20.90;63.70;;;;;;5070538;28;20025;-68
2022/05/23 10:48:59;;;;;;;5.13;1.80;;;20.90;63.50;;;;;;5044622;28;20414;-68
2022/05/23 10:51:36;;;;;;;4.63;1.65;;;20.90;63.50;;;;;;5044595;28;20501;-68
2022/05/23 10:54:35;;;;;;;6.38;1.80;;;21.00;63.40;;;;;;5042393;28;20109;-69
2022/05/23 10:57:03;;;;;;;5.85;1.88;;;21.00;63.40;;;;;;5062877;28;20448;-68
2022/05/23 10:59:29;;;;;;;5.57;1.80;;;21.00;63.50;;;;;;5033642;28;20045;-68
2022/05/23 11:02:00;;;;;;;8.57;2.05;;;20.90;63.50;;;;;;5036695;28;20057;-68
2022/05/23 11:04:55;;;;;;;5.93;1.67;;;21.00;63.60;;;;;;5033967;28;20398;-68
2022/05/23 11:07:39;;;;;;;5.75;1.80;;;21.00;63.60;;;;;;5049468;28;20037;-68
2022/05/23 11:10:26;;;;;;;3.97;1.67;;;21.00;63.60;;;;;;5034386;28;20489;-68
2022/05/23 11:13:07;;;;;;;7.43;2.00;;;21.00;63.70;;;;;;5035497;28;20120;-68
2022/05/23 11:15:41;;;;;;;6.82;1.90;;;21.00;63.90;;;;;;5041360;28;20022;-65
2022/05/23 11:18:35;;;;;;;6.15;1.70;;;21.00;63.80;;;;;;5042623;28;20124;-68
2022/05/23 11:21:11;;;;;;;6.38;2.00;;;21.00;63.80;;;;;;5037604;28;20034;-68
2022/05/23 11:23:39;;;;;;;8.38;2.03;;;21.10;63.50;;;;;;5066973;28;20532;-68
2022/05/23 11:26:26;;;;;;;7.47;1.70;;;21.10;63.50;;;;;;5067514;28;20037;-68
2022/05/23 11:34:43;;;;;;;8.57;1.77;;;21.20;63.80;;;;;;5041556;28;20037;-68
2022/05/23 11:40:06;;;;;;;6.88;2.03;;;21.20;63.60;;;;;;5041897;28;20033;-68
2022/05/23 11:42:56;;;;;;;6.97;2.15;;;21.20;63.50;;;;;;5030956;28;20049;-68
2022/05/23 11:48:43;;;;;;;5.20;1.75;;;21.20;63.30;;;;;;5034242;28;20071;-68
2022/05/23 11:51:24;;;;;;;3.97;1.67;;;21.20;63.40;;;;;;5035774;28;20090;-68
2022/05/23 11:53:56;;;;;;;4.10;1.52;;;21.20;63.30;;;;;;5035374;28;20033;-68
2022/05/23 11:56:49;;;;;;;8.75;2.03;;;21.20;63.20;;;;;;5035212;28;20071;-68
2022/05/23 11:59:23;;;;;;;7.15;1.95;;;21.30;63.40;;;;;;5029579;28;20038;-69
2022/05/23 12:02:11;;;;;;;6.10;2.05;;;21.30;63.10;;;;;;5034506;28;20075;-68
2022/05/23 12:04:49;;;;;;;5.05;1.60;;;21.30;63.20;;;;;;5032955;28;20045;-68
2022/05/23 12:07:44;;;;;;;4.70;1.75;;;21.30;63.20;;;;;;5032321;28;20041;-68
2022/05/23 12:10:21;;;;;;;5.45;1.80;;;21.30;63.10;;;;;;5037393;28;20078;-68
2022/05/23 12:12:57;;;;;;;4.57;1.83;;;21.30;62.90;;;;;;5030200;28;20037;-68
2022/05/23 12:15:44;;;;;;;4.15;1.80;;;21.30;63.00;;;;;;5032941;28;20455;-68
2022/05/23 12:18:28;;;;;;;5.32;1.77;;;21.30;63.00;;;;;;5038296;28;20033;-68
2022/05/23 12:21:17;;;;;;;5.97;1.75;;;21.40;62.90;;;;;;5033853;28;20079;-68
2022/05/23 12:23:44;;;;;;;3.88;1.42;;;21.40;62.90;;;;;;5039232;28;20391;-68
2022/05/23 12:26:09;;;;;;;5.15;1.50;;;21.40;62.90;;;;;;5069706;28;20086;-68
2022/05/23 12:28:57;;;;;;;5.13;1.40;;;21.40;62.70;;;;;;5034732;28;20425;-68
2022/05/23 12:31:38;;;;;;;4.63;1.70;;;21.40;62.70;;;;;;5036296;28;20033;-68
2022/05/23 12:34:09;;;;;;;4.45;1.70;;;21.40;62.60;;;;;;5037140;28;20501;-68
2022/05/23 12:36:46;;;;;;;5.25;1.90;;;21.50;62.60;;;;;;5040093;28;20032;-68
2022/05/23 12:39:40;;;;;;;4.78;1.60;;;21.50;62.60;;;;;;5029810;28;20037;-68
2022/05/23 12:42:20;;;;;;;4.68;1.60;;;21.50;62.50;;;;;;5042545;28;20023;-68
2022/05/23 12:45:02;;;;;;;4.18;1.70;;;21.50;62.50;;;;;;5049501;28;20056;-68
2022/05/23 12:48:06;;;;;;;4.60;1.48;;;21.50;62.50;;;;;;5029159;28;20128;-68
2022/05/23 12:51:09;;;;;;;4.25;1.67;;;21.50;62.60;;;;;;4994569;28;20117;-68
2022/05/23 12:53:46;;;;;;;4.40;1.70;;;21.50;62.60;;;;;;4981167;28;20038;-67
2022/05/23 12:56:19;;;;;;;4.22;1.90;;;21.50;62.50;;;;;;4980095;28;20129;-68
2022/05/23 12:58:47;;;;;;;7.20;2.03;;;21.40;62.60;;;;;;4995148;28;20422;-68
2022/05/23 13:01:14;;;;;;;5.38;1.90;;;21.50;62.80;;;;;;4990280;28;20053;-68
2022/05/23 13:03:49;;;;;;;5.07;1.70;;;21.50;62.70;;;;;;4987071;28;21899;-68
2022/05/23 13:06:16;;;;;;;;;;;21.50;62.70;;;;;;4993809;28;20033;-67
2022/05/23 13:08:49;;;;;;;3.38;1.52;;;21.50;62.60;;;;;;4997785;28;19909;-68
2022/05/23 13:11:21;;;;;;;4.60;1.65;;;21.50;62.80;;;;;;4981000;28;20034;-68
2022/05/23 13:13:48;;;;;;;3.72;1.55;;;21.50;62.80;;;;;;4968760;28;20034;-68
2022/05/23 13:16:15;;;;;;;5.10;1.65;;;21.50;62.90;;;;;;4984592;28;20088;-67
2022/05/23 13:24:14;;;;;;;;;;;21.50;62.80;;;;;;5067021;28;20107;-67
2022/05/23 13:27:00;;;;;;;6.25;1.67;;;21.50;62.90;;;;;;5067102;28;20306;-67
2022/05/23 13:29:26;;;;;;;8.77;1.67;;;21.50;62.80;;;;;;5069501;28;20032;-67
2022/05/23 13:31:57;;;;;;;8.40;1.77;;;21.40;62.70;;;;;;5034784;28;20033;-67
2022/05/23 13:34:23;;;;;;;7.65;1.58;;;21.50;62.60;;;;;;5034552;28;20037;-67
2022/05/23 13:36:49;;;;;;;5.10;1.73;;;21.50;62.40;;;;;;5049438;28;20091;-67
2022/05/23 13:39:16;;;;;;;6.38;1.80;;;21.50;62.50;;;;;;5036508;28;20036;-67
2022/05/23 13:41:42;;;;;;;5.13;1.73;;;21.50;62.50;;;;;;5067360;28;20060;-67
2022/05/23 13:44:07;;;;;;;9.68;1.90;;;21.50;62.60;;;;;;5036579;28;20064;-68
2022/05/23 13:46:38;;;;;;;4.82;1.80;;;21.50;62.70;;;;;;5041295;28;20163;-66
2022/05/23 13:49:13;;;;;;;5.47;1.60;;;21.50;62.90;;;;;;5042634;28;20076;-66
2022/05/23 13:51:51;;;;;;;;;;;21.50;62.90;;;;;;5033189;28;20509;-68
2022/05/23 13:54:36;;;;;;;3.97;1.70;;;21.50;62.90;;;;;;5066405;28;20004;-68
2022/05/23 13:57:09;;;;;;;4.60;1.55;;;21.50;62.90;;;;;;5040876;28;20110;-70
2022/05/23 13:59:40;;;;;;;6.70;1.70;;;21.50;63.10;;;;;;5046621;28;20029;-69
2022/05/23 14:02:12;;;;;;;5.63;1.70;;;21.50;63.00;;;;;;5050624;28;20502;-70
2022/05/23 14:04:38;;;;;;;6.03;1.60;;;21.50;62.90;;;;;;5044290;28;20021;-70
2022/05/23 14:07:08;;;;;;;5.63;1.67;;;21.50;62.90;;;;;;5047450;28;20471;-68
2022/05/23 14:09:34;;;;;;;6.00;1.40;;;21.50;63.00;;;;;;5049756;28;20051;-68
2022/05/23 14:12:04;;;;;;;6.38;1.95;;;21.50;64.00;;;;;;5050404;28;20025;-68
2022/05/23 14:14:38;;;;;;;5.47;1.50;;;21.50;62.90;;;;;;5076276;28;20035;-70
2022/05/23 14:17:34;;;;;;;5.87;1.77;;;21.50;62.90;;;;;;5022469;28;20036;-69